createdAt,value
2019-02-02T00:00:10.206Z,95942.55
2019-02-02T00:02:41.990Z,95939.92
2019-02-02T00:05:12.358Z,95939.24
2019-02-02T00:07:43.677Z,95931.75
2019-02-02T00:10:13.956Z,95936.59
2019-02-02T00:12:44.195Z,95938.00
2019-02-02T00:15:14.467Z,95937.37
2019-02-02T00:17:44.691Z,95933.45
2019-02-02T00:20:15.261Z,95927.63
2019-02-02T00:22:45.907Z,95929.27
2019-02-02T00:25:16.412Z,95926.31
2019-02-02T00:27:47.038Z,95923.41
2019-02-02T00:30:17.690Z,95930.45
2019-02-02T00:32:48.301Z,95934.70
2019-02-02T00:35:18.950Z,95941.11
2019-02-02T00:37:49.594Z,95941.80
2019-02-02T00:40:20.490Z,95949.11
2019-02-02T00:42:50.734Z,95958.20
2019-02-02T00:45:21.441Z,95958.95
2019-02-02T00:47:52.967Z,95962.59
2019-02-02T00:50:23.190Z,95957.38
2019-02-02T00:52:53.722Z,95953.02
2019-02-02T00:55:23.932Z,95954.89
2019-02-02T00:57:54.420Z,95957.63
2019-02-02T01:00:24.743Z,95967.08
2019-02-02T01:02:55.107Z,95974.11
2019-02-02T01:05:25.841Z,95988.54
2019-02-02T01:07:56.934Z,95991.78
2019-02-02T01:10:31.248Z,95975.93
2019-02-02T01:13:01.696Z,95982.73
2019-02-02T01:15:31.985Z,95984.35
2019-02-02T01:18:02.670Z,95983.13
2019-02-02T01:20:33.434Z,95986.81
2019-02-02T01:23:03.622Z,95983.63
2019-02-02T01:25:33.871Z,95970.65
2019-02-02T01:28:05.634Z,95982.30
2019-02-02T01:30:36.000Z,95973.68
2019-02-02T01:33:06.516Z,95983.22
2019-02-02T01:35:36.909Z,95991.47
2019-02-02T01:38:07.353Z,95993.02
2019-02-02T01:40:38.283Z,95983.77
2019-02-02T01:43:08.778Z,95982.82
2019-02-02T01:45:39.310Z,95986.38
2019-02-02T01:48:09.511Z,95985.08
2019-02-02T01:50:40.806Z,95999.98
2019-02-02T01:53:11.096Z,96028.32
2019-02-02T01:55:41.630Z,96050.97
2019-02-02T01:58:17.000Z,96058.05
2019-02-02T02:00:44.737Z,96051.66
2019-02-02T02:03:14.943Z,96049.64
2019-02-02T02:05:45.593Z,96045.68
2019-02-02T02:08:16.259Z,96044.80
2019-02-02T02:10:46.516Z,96033.62
2019-02-02T02:13:16.715Z,96043.76
2019-02-02T02:15:47.417Z,96034.93
2019-02-02T02:18:17.940Z,96038.75
2019-02-02T02:20:48.660Z,96033.55
2019-02-02T02:23:19.198Z,96037.41
2019-02-02T02:25:49.365Z,96046.92
2019-02-02T02:28:27.756Z,96043.77
2019-02-02T02:30:52.491Z,96038.44
2019-02-02T02:33:23.042Z,96033.29
2019-02-02T02:35:53.311Z,96028.78
2019-02-02T02:38:23.915Z,96030.84
2019-02-02T02:40:54.448Z,96035.89
2019-02-02T02:43:24.748Z,96042.48
2019-02-02T02:45:55.028Z,96041.54
2019-02-02T02:48:25.601Z,96043.09
2019-02-02T02:50:55.872Z,96024.50
2019-02-02T02:53:26.497Z,96018.48
2019-02-02T02:55:56.723Z,96020.05
2019-02-02T02:58:27.015Z,96020.56
2019-02-02T03:00:58.649Z,96028.70
2019-02-02T03:03:28.908Z,96047.09
2019-02-02T03:05:59.430Z,96069.27
2019-02-02T03:08:29.751Z,96067.73
2019-02-02T03:11:00.284Z,96055.80
2019-02-02T03:13:30.502Z,96063.12
2019-02-02T03:16:01.041Z,96063.53
2019-02-02T03:19:37.039Z,96058.17
2019-02-02T03:22:07.635Z,96043.69
2019-02-02T03:24:38.267Z,96034.64
2019-02-02T03:27:08.899Z,96047.30
2019-02-02T03:29:39.502Z,96043.95
2019-02-02T03:32:10.047Z,96055.70
2019-02-02T03:34:40.327Z,96051.83
2019-02-02T03:37:10.821Z,96054.58
2019-02-02T03:39:41.000Z,96082.86
2019-02-02T03:42:11.248Z,96081.88
2019-02-02T03:44:41.785Z,96087.06
2019-02-02T03:47:12.094Z,96087.06
2019-02-02T03:49:43.558Z,96107.41
2019-02-02T03:52:14.087Z,96112.86
2019-02-02T03:54:44.346Z,96113.87
2019-02-02T03:57:15.251Z,96101.98
2019-02-02T03:59:46.601Z,96098.00
2019-02-02T04:02:18.150Z,96098.81
2019-02-02T04:04:48.410Z,96086.81
2019-02-02T04:07:18.609Z,96083.97
2019-02-02T04:09:49.234Z,96089.16
2019-02-02T04:12:19.860Z,96094.94
2019-02-02T04:14:50.330Z,96094.52
2019-02-02T04:17:21.230Z,96100.88
2019-02-02T04:19:52.148Z,96110.77
2019-02-02T04:22:23.384Z,96110.11
2019-02-02T04:24:57.323Z,96101.25
2019-02-02T04:27:27.964Z,96100.59
2019-02-02T04:29:59.823Z,96129.85
2019-02-02T04:32:30.434Z,96117.05
2019-02-02T04:35:00.642Z,96118.59
2019-02-02T04:37:31.300Z,96140.45
2019-02-02T04:40:01.485Z,96149.51
2019-02-02T04:42:32.365Z,96146.81
2019-02-02T04:45:02.648Z,96149.83
2019-02-02T04:47:32.980Z,96159.61
2019-02-02T04:50:03.235Z,96159.00
2019-02-02T04:52:33.513Z,96164.45
2019-02-02T04:55:05.236Z,96168.89
2019-02-02T04:57:35.497Z,96182.08
2019-02-02T05:00:08.144Z,96180.53
2019-02-02T05:02:38.750Z,96186.86
2019-02-02T05:05:11.513Z,96181.80
2019-02-02T05:07:42.161Z,96190.69
2019-02-02T05:10:14.651Z,96193.11
2019-02-02T05:12:44.914Z,96191.08
2019-02-02T05:15:15.711Z,96197.30
2019-02-02T05:17:46.737Z,96194.45
2019-02-02T05:20:17.720Z,96202.58
2019-02-02T05:22:48.053Z,96199.27
2019-02-02T05:25:18.252Z,96199.33
2019-02-02T05:27:48.754Z,96205.75
2019-02-02T05:30:21.948Z,96208.83
2019-02-02T05:32:52.261Z,96208.92
2019-02-02T05:35:22.906Z,96209.61
2019-02-02T05:37:53.258Z,96222.89
2019-02-02T05:40:23.448Z,96226.23
2019-02-02T05:42:53.860Z,96234.66
2019-02-02T05:45:24.712Z,96235.09
2019-02-02T05:47:55.030Z,96238.44
2019-02-02T05:50:25.287Z,96237.00
2019-02-02T05:52:55.892Z,96243.66
2019-02-02T05:55:26.433Z,96249.52
2019-02-02T05:57:57.051Z,96248.88
2019-02-02T06:00:34.059Z,96248.36
2019-02-02T06:03:04.563Z,96247.47
2019-02-02T06:05:34.816Z,96255.45
2019-02-02T06:08:05.514Z,96255.11
2019-02-02T06:10:36.471Z,96258.45
2019-02-02T06:13:07.060Z,96259.29
2019-02-02T06:15:37.625Z,96266.02
2019-02-02T06:18:08.156Z,96267.97
2019-02-02T06:20:38.686Z,96276.35
2019-02-02T06:23:09.008Z,96276.45
2019-02-02T06:25:39.302Z,96280.89
2019-02-02T06:28:09.538Z,96285.47
2019-02-02T06:30:40.391Z,96283.11
2019-02-02T06:33:10.681Z,96282.52
2019-02-02T06:35:41.925Z,96286.63
2019-02-02T06:38:12.497Z,96289.17
2019-02-02T06:40:42.770Z,96289.17
2019-02-02T06:43:12.999Z,96293.62
2019-02-02T06:45:43.549Z,96294.45
2019-02-02T06:48:14.212Z,96296.81
2019-02-02T06:50:44.827Z,96303.56
2019-02-02T06:53:15.464Z,96305.81
2019-02-02T06:55:46.057Z,96304.49
2019-02-02T06:58:16.281Z,96311.42
2019-02-02T07:00:46.557Z,96311.09
2019-02-02T07:03:16.833Z,96321.00
2019-02-02T07:05:47.048Z,96329.63
2019-02-02T07:08:17.374Z,96335.63
2019-02-02T07:10:47.939Z,96337.98
2019-02-02T07:13:18.197Z,96345.20
2019-02-02T07:15:48.489Z,96355.42
2019-02-02T07:18:18.772Z,96352.00
2019-02-02T07:20:49.029Z,96360.80
2019-02-02T07:23:19.221Z,96364.05
2019-02-02T07:25:49.477Z,96365.97
2019-02-02T07:28:19.736Z,96371.73
2019-02-02T07:30:50.093Z,96379.06
2019-02-02T07:33:20.294Z,96381.70
2019-02-02T07:35:50.557Z,96390.94
2019-02-02T07:38:20.837Z,96390.33
2019-02-02T07:40:51.166Z,96397.82
2019-02-02T07:43:21.760Z,96402.17
2019-02-02T07:45:52.462Z,96409.76
2019-02-02T07:48:23.528Z,96409.81
2019-02-02T07:50:54.572Z,96404.35
2019-02-02T07:53:25.067Z,96414.03
2019-02-02T07:55:55.340Z,96421.75
2019-02-02T07:58:25.919Z,96418.72
2019-02-02T08:00:57.700Z,96411.93
2019-02-02T08:03:29.820Z,96409.53
2019-02-02T08:06:00.361Z,96410.61
2019-02-02T08:08:30.684Z,96414.81
2019-02-02T08:11:00.943Z,96417.25
2019-02-02T08:13:32.424Z,96411.98
2019-02-02T08:16:03.347Z,96408.20
2019-02-02T08:18:33.954Z,96412.50
2019-02-02T08:21:05.128Z,96420.15
2019-02-02T08:23:35.913Z,96425.19
2019-02-02T08:26:06.270Z,96429.38
2019-02-02T08:28:37.029Z,96428.38
2019-02-02T08:31:07.669Z,96430.91
2019-02-02T08:33:38.276Z,96427.50
2019-02-02T08:36:10.056Z,96432.59
2019-02-02T08:38:40.677Z,96430.28
2019-02-02T08:41:11.039Z,96438.42
2019-02-02T08:43:41.637Z,96436.54
2019-02-02T08:46:11.961Z,96440.84
2019-02-02T08:48:42.230Z,96438.75
2019-02-02T08:51:12.500Z,96444.11
2019-02-02T08:53:42.756Z,96446.88
2019-02-02T08:56:13.345Z,96457.87
2019-02-02T08:58:44.126Z,96455.94
2019-02-02T09:01:14.720Z,96460.33
2019-02-02T09:03:45.963Z,96459.22
2019-02-02T09:06:16.316Z,96466.94
2019-02-02T09:08:46.926Z,96468.70
2019-02-02T09:11:17.241Z,96474.20
2019-02-02T09:13:47.976Z,96466.39
2019-02-02T09:16:18.521Z,96474.75
2019-02-02T09:18:51.217Z,96476.83
2019-02-02T09:21:22.738Z,96477.05
2019-02-02T09:23:53.020Z,96473.56
2019-02-02T09:26:24.065Z,96477.96
2019-02-02T09:28:54.622Z,96479.99
2019-02-02T09:31:25.281Z,96485.37
2019-02-02T09:33:56.426Z,96492.03
2019-02-02T09:36:27.464Z,96497.05
2019-02-02T09:38:58.101Z,96499.79
2019-02-02T09:41:28.490Z,96508.21
2019-02-02T09:43:58.800Z,96512.02
2019-02-02T09:46:29.468Z,96519.67
2019-02-02T09:49:00.641Z,96519.08
2019-02-02T09:51:31.664Z,96522.54
2019-02-02T09:54:02.283Z,96523.30
2019-02-02T09:56:32.927Z,96525.02
2019-02-02T09:59:03.697Z,96527.97
2019-02-02T10:01:34.070Z,96532.37
2019-02-02T10:04:04.605Z,96536.57
2019-02-02T10:06:34.895Z,96532.52
2019-02-02T10:09:08.075Z,96545.50
2019-02-02T10:11:39.612Z,96546.51
2019-02-02T10:14:09.916Z,96556.44
2019-02-02T10:16:40.198Z,96552.98
2019-02-02T10:19:10.753Z,96553.67
2019-02-02T10:21:41.135Z,96562.39
2019-02-02T10:24:11.565Z,96562.34
2019-02-02T10:26:42.053Z,96568.72
2019-02-02T10:29:12.388Z,96570.94
2019-02-02T10:31:42.911Z,96568.59
2019-02-02T10:34:14.162Z,96566.31
2019-02-02T10:36:44.471Z,96569.89
2019-02-02T10:39:15.048Z,96559.21
2019-02-02T10:41:45.335Z,96554.70
2019-02-02T10:44:15.994Z,96548.45
2019-02-02T10:46:46.745Z,96551.06
2019-02-02T10:49:17.153Z,96555.84
2019-02-02T10:51:47.425Z,96544.54
2019-02-02T10:54:17.878Z,96552.77
2019-02-02T10:56:48.292Z,96548.99
2019-02-02T10:59:19.199Z,96542.14
2019-02-02T11:01:51.213Z,96538.66
2019-02-02T11:04:22.056Z,96537.81
2019-02-02T11:06:53.026Z,96535.64
2019-02-02T11:09:24.751Z,96527.30
2019-02-02T11:11:55.369Z,96526.50
2019-02-02T11:14:26.548Z,96525.98
2019-02-02T11:16:57.916Z,96528.62
2019-02-02T11:19:29.444Z,96526.05
2019-02-02T11:22:00.560Z,96527.14
2019-02-02T11:24:32.690Z,96527.14
2019-02-02T11:27:03.287Z,96531.09
2019-02-02T11:29:33.781Z,96533.00
2019-02-02T11:32:04.708Z,96527.74
2019-02-02T11:34:35.478Z,96531.53
2019-02-02T11:37:06.303Z,96532.87
2019-02-02T11:39:36.575Z,96534.45
2019-02-02T11:42:07.403Z,96528.22
2019-02-02T11:44:38.087Z,96531.10
2019-02-02T11:47:08.660Z,96534.41
2019-02-02T11:49:39.198Z,96536.07
2019-02-02T11:52:09.449Z,96533.51
2019-02-02T11:54:40.026Z,96531.76
2019-02-02T11:57:10.569Z,96538.97
2019-02-02T11:59:40.872Z,96536.58
2019-02-02T12:02:14.479Z,96543.16
2019-02-02T12:04:44.866Z,96555.78
2019-02-02T12:07:15.566Z,96556.13
2019-02-02T12:09:46.197Z,96557.43
2019-02-02T12:12:17.189Z,96552.28
2019-02-02T12:14:48.234Z,96552.28
2019-02-02T12:17:18.988Z,96547.27
2019-02-02T12:19:49.806Z,96555.59
2019-02-02T12:22:20.953Z,96545.26
2019-02-02T12:24:51.482Z,96550.84
2019-02-02T12:27:22.010Z,96564.53
2019-02-02T12:29:52.878Z,96556.55
2019-02-02T12:32:26.820Z,96571.35
2019-02-02T12:34:55.741Z,96570.69
2019-02-02T12:37:26.374Z,96572.34
2019-02-02T12:39:56.838Z,96568.86
2019-02-02T12:42:27.808Z,96574.05
2019-02-02T12:44:58.684Z,96582.33
2019-02-02T12:47:29.187Z,96599.28
2019-02-02T12:49:59.984Z,96591.64
2019-02-02T12:52:30.334Z,96597.48
2019-02-02T12:55:02.757Z,96598.03
2019-02-02T12:57:33.271Z,96605.79
2019-02-02T13:00:04.027Z,96596.75
2019-02-02T13:02:38.259Z,96596.75
2019-02-02T13:05:08.331Z,96601.67
2019-02-02T13:07:38.786Z,96606.19
2019-02-02T13:10:12.442Z,96608.89
2019-02-02T13:12:43.864Z,96610.47
2019-02-02T13:15:16.228Z,96611.89
2019-02-02T13:17:47.749Z,96614.63
2019-02-02T13:20:19.073Z,96605.05
2019-02-02T13:22:51.236Z,96611.00
2019-02-02T13:25:22.274Z,96610.95
2019-02-02T13:27:53.831Z,96611.23
2019-02-02T13:30:32.937Z,96618.20
2019-02-02T13:33:04.245Z,96617.52
2019-02-02T13:35:36.691Z,96619.90
2019-02-02T13:38:07.984Z,96614.80
2019-02-02T13:40:38.591Z,96610.20
2019-02-02T13:43:08.851Z,96617.10
2019-02-02T13:45:39.883Z,96617.28
2019-02-02T13:48:11.619Z,96617.61
2019-02-02T13:50:42.691Z,96621.95
2019-02-02T13:53:13.403Z,96626.14
2019-02-02T13:55:44.178Z,96636.14
2019-02-02T13:58:14.402Z,96631.28
2019-02-02T14:00:44.993Z,96624.58
2019-02-02T14:03:15.299Z,96631.26
2019-02-02T14:05:46.187Z,96643.62
2019-02-02T14:08:17.088Z,96638.33
2019-02-02T14:10:47.723Z,96640.66
2019-02-02T14:13:18.274Z,96642.67
2019-02-02T14:15:49.475Z,96644.36
2019-02-02T14:18:20.120Z,96644.50
2019-02-02T14:20:50.713Z,96645.83
2019-02-02T14:23:21.284Z,96644.64
2019-02-02T14:25:52.021Z,96660.45
2019-02-02T14:28:28.443Z,96673.86
2019-02-02T14:30:55.431Z,96673.53
2019-02-02T14:33:26.216Z,96673.56
2019-02-02T14:35:56.797Z,96676.20
2019-02-02T14:38:27.020Z,96679.22
2019-02-02T14:40:57.750Z,96673.73
2019-02-02T14:43:28.328Z,96675.22
2019-02-02T14:45:59.850Z,96680.85
2019-02-02T14:48:30.790Z,96685.47
2019-02-02T14:51:01.050Z,96689.64
2019-02-02T14:53:31.474Z,96699.44
2019-02-02T14:56:01.729Z,96705.67
2019-02-02T14:58:32.814Z,96705.31
2019-02-02T15:01:03.086Z,96708.63
2019-02-02T15:03:33.773Z,96710.31
2019-02-02T15:06:04.037Z,96717.98
2019-02-02T15:08:34.710Z,96722.30
2019-02-02T15:11:06.432Z,96718.64
2019-02-02T15:13:37.420Z,96731.77
2019-02-02T15:16:07.654Z,96732.59
2019-02-02T15:18:38.360Z,96727.59
2019-02-02T15:21:08.889Z,96732.05
2019-02-02T15:23:39.137Z,96739.66
2019-02-02T15:26:09.760Z,96754.24
2019-02-02T15:28:40.693Z,96756.86
2019-02-02T15:31:11.581Z,96754.49
2019-02-02T15:33:42.609Z,96759.08
2019-02-02T15:36:13.557Z,96760.58
2019-02-02T15:38:44.445Z,96760.28
2019-02-02T15:41:14.708Z,96762.62
2019-02-02T15:43:48.062Z,96753.82
2019-02-02T15:46:18.704Z,96754.70
2019-02-02T15:48:49.334Z,96762.55
2019-02-02T15:51:19.777Z,96760.26
2019-02-02T15:53:50.492Z,96761.14
2019-02-02T15:56:21.634Z,96769.02
2019-02-02T15:58:52.070Z,96775.73
2019-02-02T16:01:22.415Z,96775.51
2019-02-02T16:03:53.092Z,96784.25
2019-02-02T16:06:24.302Z,96791.29
2019-02-02T16:08:55.002Z,96792.28
2019-02-02T16:11:25.628Z,96786.71
2019-02-02T16:13:56.229Z,96792.03
2019-02-02T16:16:28.163Z,96792.19
2019-02-02T16:18:58.625Z,96791.50
2019-02-02T16:21:29.077Z,96784.86
2019-02-02T16:24:00.177Z,96781.73
2019-02-02T16:26:31.165Z,96788.34
2019-02-02T16:29:01.790Z,96785.86
2019-02-02T16:31:32.491Z,96796.78
2019-02-02T16:34:02.881Z,96793.82
2019-02-02T16:36:33.784Z,96796.64
2019-02-02T16:39:05.685Z,96805.94
2019-02-02T16:41:36.269Z,96807.70
2019-02-02T16:44:06.677Z,96810.28
2019-02-02T16:46:37.663Z,96808.48
2019-02-02T16:49:08.387Z,96810.25
2019-02-02T16:51:38.695Z,96818.21
2019-02-02T16:54:09.308Z,96824.42
2019-02-02T16:56:39.899Z,96827.28
2019-02-02T16:59:11.085Z,96834.80
2019-02-02T17:01:42.370Z,96836.28
2019-02-02T17:04:16.013Z,96849.99
2019-02-02T17:06:45.880Z,96847.47
2019-02-02T17:09:16.268Z,96860.70
2019-02-02T17:11:47.247Z,96864.28
2019-02-02T17:14:18.032Z,96871.95
2019-02-02T17:16:48.365Z,96881.53
2019-02-02T17:19:19.416Z,96880.52
2019-02-02T17:21:50.085Z,96888.31
2019-02-02T17:24:22.126Z,96890.41
2019-02-02T17:26:52.459Z,96898.81
2019-02-02T17:29:23.120Z,96896.86
2019-02-02T17:31:53.500Z,96901.89
2019-02-02T17:34:27.252Z,96919.16
2019-02-02T17:36:56.874Z,96922.33
2019-02-02T17:39:27.664Z,96920.47
2019-02-02T17:41:58.081Z,96928.72
2019-02-02T17:44:28.442Z,96938.02
2019-02-02T17:46:58.823Z,96937.31
2019-02-02T17:49:29.395Z,96938.43
2019-02-02T17:51:59.914Z,96940.51
2019-02-02T17:54:30.343Z,96946.73
2019-02-02T17:57:00.974Z,96961.70
2019-02-02T17:59:31.668Z,96963.94
2019-02-02T18:02:02.499Z,96970.48
2019-02-02T18:04:39.505Z,96969.45
2019-02-02T18:07:05.893Z,96971.97
2019-02-02T18:09:36.506Z,96982.72
2019-02-02T18:12:06.920Z,96987.11
2019-02-02T18:14:37.420Z,96990.53
2019-02-02T18:17:08.164Z,96998.08
2019-02-02T18:19:39.300Z,97002.77
2019-02-02T18:22:10.975Z,96997.09
2019-02-02T18:24:43.341Z,97004.92
2019-02-02T18:27:14.196Z,97012.05
2019-02-02T18:29:46.273Z,97020.23
2019-02-02T18:32:17.695Z,97020.02
2019-02-02T18:34:51.326Z,97026.50
2019-02-02T18:37:21.329Z,97025.81
2019-02-02T18:39:54.214Z,97027.08
2019-02-02T18:42:26.419Z,97028.10
2019-02-02T18:44:57.583Z,97030.64
2019-02-02T18:47:28.593Z,97035.52
2019-02-02T18:49:59.509Z,97031.72
2019-02-02T18:52:30.155Z,97033.38
2019-02-02T18:55:00.944Z,97028.63
2019-02-02T18:57:32.250Z,97029.34
2019-02-02T19:00:06.177Z,97016.34
2019-02-02T19:02:39.540Z,97015.91
2019-02-02T19:05:11.789Z,97021.22
2019-02-02T19:07:43.709Z,97018.13
2019-02-02T19:10:18.695Z,97019.36
2019-02-02T19:12:49.875Z,97029.07
2019-02-02T19:15:22.369Z,97027.25
2019-02-02T19:17:55.781Z,97033.55
2019-02-02T19:20:29.567Z,97044.27
2019-02-02T19:23:02.564Z,97047.47
2019-02-02T19:25:35.584Z,97049.90
2019-02-02T19:28:09.321Z,97053.88
2019-02-02T19:30:43.690Z,97052.18
2019-02-02T19:33:17.492Z,97050.91
2019-02-02T19:35:50.627Z,97059.58
2019-02-02T19:38:24.911Z,97068.58
2019-02-02T19:40:58.820Z,97069.08
2019-02-02T19:43:31.842Z,97073.84
2019-02-02T19:46:06.264Z,97083.09
2019-02-02T19:48:40.768Z,97087.25
2019-02-02T19:51:14.908Z,97094.82
2019-02-02T19:53:48.544Z,97096.83
2019-02-02T19:56:21.894Z,97094.63
2019-02-02T19:58:54.282Z,97106.44
2019-02-02T20:01:27.798Z,97118.63
2019-02-02T20:04:02.002Z,97118.29
2019-02-02T20:06:35.879Z,97120.45
2019-02-02T20:09:10.322Z,97127.92
2019-02-02T20:11:45.474Z,97131.64
2019-02-02T20:14:19.524Z,97131.41
2019-02-02T20:16:53.382Z,97148.44
2019-02-02T20:19:27.114Z,97149.87
2019-02-02T20:22:02.891Z,97154.73
2019-02-02T20:24:36.994Z,97154.35
2019-02-02T20:27:12.903Z,97158.72
2019-02-02T20:29:47.667Z,97161.55
2019-02-02T20:32:21.811Z,97167.84
2019-02-02T20:34:56.621Z,97173.45
2019-02-02T20:37:30.326Z,97173.11
2019-02-02T20:40:05.359Z,97174.36
2019-02-02T20:42:40.027Z,97181.77
2019-02-02T20:45:16.045Z,97187.52
2019-02-02T20:47:49.320Z,97197.05
2019-02-02T20:50:23.102Z,97198.98
2019-02-02T20:52:56.750Z,97199.39
2019-02-02T20:55:32.182Z,97194.34
2019-02-02T20:58:06.424Z,97193.39
2019-02-02T21:00:40.820Z,97195.31
2019-02-02T21:03:13.641Z,97195.08
2019-02-02T21:05:52.289Z,97207.38
2019-02-02T21:08:21.714Z,97203.45
2019-02-02T21:10:56.202Z,97203.45
2019-02-02T21:13:29.346Z,97213.67
2019-02-02T21:16:02.253Z,97218.48
2019-02-02T21:18:35.467Z,97225.35
2019-02-02T21:21:08.951Z,97228.38
2019-02-02T21:23:41.968Z,97228.73
2019-02-02T21:26:14.919Z,97223.55
2019-02-02T21:28:50.488Z,97224.78
2019-02-02T21:31:21.584Z,97223.67
2019-02-02T21:33:53.324Z,97224.77
2019-02-02T21:36:26.391Z,97223.09
2019-02-02T21:38:57.745Z,97218.05
2019-02-02T21:41:30.012Z,97225.51
2019-02-02T21:44:02.130Z,97224.78
2019-02-02T21:46:33.494Z,97219.74
2019-02-02T21:49:05.573Z,97222.25
2019-02-02T21:51:36.976Z,97232.25
2019-02-02T21:54:09.866Z,97235.35
2019-02-02T21:56:41.239Z,97238.00
2019-02-02T21:59:13.073Z,97235.01
2019-02-02T22:01:44.262Z,97240.55
2019-02-02T22:04:16.346Z,97240.65
2019-02-02T22:06:47.613Z,97245.94
2019-02-02T22:09:18.515Z,97252.94
2019-02-02T22:11:50.024Z,97247.50
2019-02-02T22:14:22.443Z,97245.73
2019-02-02T22:16:53.892Z,97248.83
2019-02-02T22:19:24.709Z,97253.78
2019-02-02T22:21:55.976Z,97251.62
2019-02-02T22:24:26.634Z,97251.97
2019-02-02T22:26:57.699Z,97256.28
2019-02-02T22:29:27.977Z,97257.85
2019-02-02T22:31:58.485Z,97258.20
2019-02-02T22:34:29.163Z,97265.20
2019-02-02T22:36:59.439Z,97271.44
2019-02-02T22:39:30.183Z,97270.25
2019-02-02T22:42:01.031Z,97265.80
2019-02-02T22:44:31.662Z,97272.89
2019-02-02T22:47:02.145Z,97276.62
2019-02-02T22:49:32.932Z,97276.97
2019-02-02T22:52:03.225Z,97280.59
2019-02-02T22:54:33.539Z,97285.05
2019-02-02T22:57:04.528Z,97294.06
2019-02-02T22:59:35.458Z,97291.52
2019-02-02T23:02:13.203Z,97298.02
2019-02-02T23:05:04.162Z,97307.28
2019-02-02T23:08:15.879Z,97309.80
2019-02-02T23:11:23.145Z,97312.93
2019-02-02T23:14:52.811Z,97317.48
2019-02-02T23:17:23.612Z,97324.69
2019-02-02T23:19:53.971Z,97329.63
2019-02-02T23:22:24.862Z,97309.79
2019-02-02T23:24:55.390Z,97326.15
2019-02-02T23:27:25.603Z,97326.98
2019-02-02T23:29:55.871Z,97331.30
2019-02-02T23:32:27.058Z,97337.47
2019-02-02T23:34:57.381Z,97336.98
2019-02-02T23:37:28.247Z,97342.27
2019-02-02T23:39:58.742Z,97344.19
2019-02-02T23:42:28.981Z,97347.80
2019-02-02T23:44:59.280Z,97351.03
2019-02-02T23:47:29.567Z,97362.20
2019-02-02T23:50:00.337Z,97365.09
2019-02-02T23:52:30.792Z,97372.44
2019-02-02T23:55:01.062Z,97376.02
2019-02-02T23:57:31.371Z,97379.50
